sensor_id;sensor_type;location;lat;lon;timestamp;P1;durP1;ratioP1;P2;durP2;ratioP2
12129;SDS011;6128;59.340;18.040;2024-03-07T00:02:10;11.53;;;5.30;;
12129;SDS011;6128;59.340;18.040;2024-03-07T00:04:37;8.50;;;5.17;;
12129;SDS011;6128;59.340;18.040;2024-03-07T00:07:04;6.63;;;5.50;;
12129;SDS011;6128;59.340;18.040;2024-03-07T00:09:34;10.87;;;5.13;;
12129;SDS011;6128;59.340;18.040;2024-03-07T00:12:01;8.80;;;5.67;;
12129;SDS011;6128;59.340;18.040;2024-03-07T00:14:29;7.37;;;5.30;;
12129;SDS011;6128;59.340;18.040;2024-03-07T00:16:57;7.83;;;5.27;;
12129;SDS011;6128;59.340;18.040;2024-03-07T00:19:25;9.53;;;5.80;;
12129;SDS011;6128;59.340;18.040;2024-03-07T00:21:52;9.93;;;5.63;;
12129;SDS011;6128;59.340;18.040;2024-03-07T00:24:20;13.20;;;5.77;;
12129;SDS011;6128;59.340;18.040;2024-03-07T00:26:49;7.70;;;5.43;;
12129;SDS011;6128;59.340;18.040;2024-03-07T00:29:16;8.57;;;5.50;;
12129;SDS011;6128;59.340;18.040;2024-03-07T00:31:44;7.77;;;5.17;;
12129;SDS011;6128;59.340;18.040;2024-03-07T00:34:11;9.03;;;6.10;;
12129;SDS011;6128;59.340;18.040;2024-03-07T00:36:41;10.37;;;6.60;;
12129;SDS011;6128;59.340;18.040;2024-03-07T00:39:08;8.13;;;5.90;;
12129;SDS011;6128;59.340;18.040;2024-03-07T00:41:37;8.63;;;5.73;;
12129;SDS011;6128;59.340;18.040;2024-03-07T00:44:06;10.90;;;5.77;;
12129;SDS011;6128;59.340;18.040;2024-03-07T00:46:34;7.97;;;5.17;;
12129;SDS011;6128;59.340;18.040;2024-03-07T00:49:01;7.37;;;5.00;;
12129;SDS011;6128;59.340;18.040;2024-03-07T00:51:28;6.60;;;5.23;;
12129;SDS011;6128;59.340;18.040;2024-03-07T00:53:55;16.07;;;5.83;;
12129;SDS011;6128;59.340;18.040;2024-03-07T00:56:23;9.57;;;4.80;;
12129;SDS011;6128;59.340;18.040;2024-03-07T00:58:50;9.57;;;5.33;;
12129;SDS011;6128;59.340;18.040;2024-03-07T01:01:19;10.40;;;5.87;;
12129;SDS011;6128;59.340;18.040;2024-03-07T01:03:46;11.17;;;5.07;;
12129;SDS011;6128;59.340;18.040;2024-03-07T01:06:13;8.00;;;5.63;;
12129;SDS011;6128;59.340;18.040;2024-03-07T01:08:40;14.33;;;6.07;;
12129;SDS011;6128;59.340;18.040;2024-03-07T01:11:07;12.20;;;5.50;;
12129;SDS011;6128;59.340;18.040;2024-03-07T01:13:37;12.03;;;5.27;;
12129;SDS011;6128;59.340;18.040;2024-03-07T01:16:05;10.27;;;5.67;;
12129;SDS011;6128;59.340;18.040;2024-03-07T01:18:34;9.20;;;6.30;;
12129;SDS011;6128;59.340;18.040;2024-03-07T01:21:03;12.23;;;5.57;;
12129;SDS011;6128;59.340;18.040;2024-03-07T01:23:31;9.37;;;5.73;;
12129;SDS011;6128;59.340;18.040;2024-03-07T01:25:58;9.83;;;5.10;;
12129;SDS011;6128;59.340;18.040;2024-03-07T01:28:26;10.27;;;5.73;;
12129;SDS011;6128;59.340;18.040;2024-03-07T01:30:55;7.83;;;5.23;;
12129;SDS011;6128;59.340;18.040;2024-03-07T01:33:23;7.97;;;4.97;;
12129;SDS011;6128;59.340;18.040;2024-03-07T01:35:52;7.17;;;5.20;;
12129;SDS011;6128;59.340;18.040;2024-03-07T01:38:19;6.73;;;5.07;;
12129;SDS011;6128;59.340;18.040;2024-03-07T01:40:46;7.40;;;5.00;;
12129;SDS011;6128;59.340;18.040;2024-03-07T01:43:13;8.43;;;4.90;;
12129;SDS011;6128;59.340;18.040;2024-03-07T01:45:40;7.10;;;4.53;;
12129;SDS011;6128;59.340;18.040;2024-03-07T01:48:08;9.87;;;4.73;;
12129;SDS011;6128;59.340;18.040;2024-03-07T01:50:36;7.13;;;4.60;;
12129;SDS011;6128;59.340;18.040;2024-03-07T01:53:05;6.43;;;4.17;;
12129;SDS011;6128;59.340;18.040;2024-03-07T01:55:36;10.93;;;4.83;;
12129;SDS011;6128;59.340;18.040;2024-03-07T01:58:04;7.63;;;4.63;;
12129;SDS011;6128;59.340;18.040;2024-03-07T02:00:32;10.53;;;4.30;;
12129;SDS011;6128;59.340;18.040;2024-03-07T02:02:59;5.57;;;4.47;;
12129;SDS011;6128;59.340;18.040;2024-03-07T02:05:26;5.07;;;4.33;;
12129;SDS011;6128;59.340;18.040;2024-03-07T02:07:53;5.87;;;4.40;;
12129;SDS011;6128;59.340;18.040;2024-03-07T02:10:22;4.67;;;3.70;;
12129;SDS011;6128;59.340;18.040;2024-03-07T02:12:49;5.60;;;3.90;;
12129;SDS011;6128;59.340;18.040;2024-03-07T02:15:16;6.80;;;4.17;;
12129;SDS011;6128;59.340;18.040;2024-03-07T02:17:43;4.30;;;3.87;;
12129;SDS011;6128;59.340;18.040;2024-03-07T02:20:11;6.50;;;4.20;;
12129;SDS011;6128;59.340;18.040;2024-03-07T02:22:39;7.37;;;4.17;;
12129;SDS011;6128;59.340;18.040;2024-03-07T02:25:07;10.13;;;4.63;;
12129;SDS011;6128;59.340;18.040;2024-03-07T02:27:36;5.60;;;4.10;;
12129;SDS011;6128;59.340;18.040;2024-03-07T02:30:03;6.53;;;3.97;;
12129;SDS011;6128;59.340;18.040;2024-03-07T02:32:33;5.13;;;3.77;;
12129;SDS011;6128;59.340;18.040;2024-03-07T02:35:02;6.37;;;3.80;;
12129;SDS011;6128;59.340;18.040;2024-03-07T02:37:30;5.43;;;3.80;;
12129;SDS011;6128;59.340;18.040;2024-03-07T02:39:58;5.27;;;3.93;;
12129;SDS011;6128;59.340;18.040;2024-03-07T02:42:26;5.83;;;3.47;;
12129;SDS011;6128;59.340;18.040;2024-03-07T02:44:53;6.47;;;4.00;;
12129;SDS011;6128;59.340;18.040;2024-03-07T02:47:20;6.50;;;3.63;;
12129;SDS011;6128;59.340;18.040;2024-03-07T02:49:48;6.17;;;3.87;;
12129;SDS011;6128;59.340;18.040;2024-03-07T02:52:15;6.30;;;3.50;;
12129;SDS011;6128;59.340;18.040;2024-03-07T02:54:43;5.87;;;3.47;;
12129;SDS011;6128;59.340;18.040;2024-03-07T02:57:11;7.73;;;3.80;;
12129;SDS011;6128;59.340;18.040;2024-03-07T02:59:38;6.20;;;3.27;;
12129;SDS011;6128;59.340;18.040;2024-03-07T03:02:05;4.87;;;3.60;;
12129;SDS011;6128;59.340;18.040;2024-03-07T03:04:32;4.00;;;3.53;;
12129;SDS011;6128;59.340;18.040;2024-03-07T03:06:59;6.37;;;4.43;;
12129;SDS011;6128;59.340;18.040;2024-03-07T03:09:26;9.90;;;4.13;;
12129;SDS011;6128;59.340;18.040;2024-03-07T03:11:53;6.53;;;3.63;;
12129;SDS011;6128;59.340;18.040;2024-03-07T03:14:22;6.40;;;3.63;;
12129;SDS011;6128;59.340;18.040;2024-03-07T03:16:49;7.33;;;3.73;;
12129;SDS011;6128;59.340;18.040;2024-03-07T03:19:16;6.77;;;3.57;;
12129;SDS011;6128;59.340;18.040;2024-03-07T03:21:43;5.60;;;3.33;;
12129;SDS011;6128;59.340;18.040;2024-03-07T03:24:10;5.00;;;3.60;;
12129;SDS011;6128;59.340;18.040;2024-03-07T03:26:37;4.97;;;3.50;;
12129;SDS011;6128;59.340;18.040;2024-03-07T03:29:05;7.63;;;4.47;;
12129;SDS011;6128;59.340;18.040;2024-03-07T03:31:35;4.50;;;3.03;;
12129;SDS011;6128;59.340;18.040;2024-03-07T03:34:03;5.23;;;3.37;;
12129;SDS011;6128;59.340;18.040;2024-03-07T03:36:30;5.93;;;3.90;;
12129;SDS011;6128;59.340;18.040;2024-03-07T03:38:57;6.73;;;3.70;;
12129;SDS011;6128;59.340;18.040;2024-03-07T03:41:24;3.70;;;3.33;;
12129;SDS011;6128;59.340;18.040;2024-03-07T03:43:51;4.13;;;2.87;;
12129;SDS011;6128;59.340;18.040;2024-03-07T03:46:18;5.17;;;3.10;;
12129;SDS011;6128;59.340;18.040;2024-03-07T03:48:46;5.50;;;3.60;;
12129;SDS011;6128;59.340;18.040;2024-03-07T03:51:15;4.33;;;3.60;;
12129;SDS011;6128;59.340;18.040;2024-03-07T03:53:42;7.07;;;3.10;;
12129;SDS011;6128;59.340;18.040;2024-03-07T03:56:10;8.03;;;3.40;;
12129;SDS011;6128;59.340;18.040;2024-03-07T03:58:39;4.10;;;3.20;;
12129;SDS011;6128;59.340;18.040;2024-03-07T04:01:06;3.53;;;3.20;;
12129;SDS011;6128;59.340;18.040;2024-03-07T04:03:38;8.67;;;3.80;;
12129;SDS011;6128;59.340;18.040;2024-03-07T04:06:06;6.60;;;3.30;;
12129;SDS011;6128;59.340;18.040;2024-03-07T04:08:34;3.87;;;3.20;;
12129;SDS011;6128;59.340;18.040;2024-03-07T04:11:02;4.30;;;3.30;;
12129;SDS011;6128;59.340;18.040;2024-03-07T04:13:30;7.97;;;3.53;;
12129;SDS011;6128;59.340;18.040;2024-03-07T04:15:57;5.80;;;3.30;;
12129;SDS011;6128;59.340;18.040;2024-03-07T04:18:24;3.20;;;2.90;;
12129;SDS011;6128;59.340;18.040;2024-03-07T04:20:51;7.07;;;3.30;;
12129;SDS011;6128;59.340;18.040;2024-03-07T04:23:20;4.73;;;2.93;;
12129;SDS011;6128;59.340;18.040;2024-03-07T04:25:47;5.00;;;3.47;;
12129;SDS011;6128;59.340;18.040;2024-03-07T04:28:15;3.83;;;3.00;;
12129;SDS011;6128;59.340;18.040;2024-03-07T04:30:42;6.13;;;3.33;;
12129;SDS011;6128;59.340;18.040;2024-03-07T04:33:09;3.93;;;2.67;;
12129;SDS011;6128;59.340;18.040;2024-03-07T04:35:36;4.37;;;3.07;;
12129;SDS011;6128;59.340;18.040;2024-03-07T04:38:03;5.23;;;2.50;;
12129;SDS011;6128;59.340;18.040;2024-03-07T04:40:36;5.70;;;3.20;;
12129;SDS011;6128;59.340;18.040;2024-03-07T04:43:04;4.47;;;3.00;;
12129;SDS011;6128;59.340;18.040;2024-03-07T04:45:31;7.13;;;3.10;;
12129;SDS011;6128;59.340;18.040;2024-03-07T04:47:58;3.93;;;3.27;;
12129;SDS011;6128;59.340;18.040;2024-03-07T04:50:25;5.03;;;3.00;;
12129;SDS011;6128;59.340;18.040;2024-03-07T04:52:52;3.67;;;3.17;;
12129;SDS011;6128;59.340;18.040;2024-03-07T04:55:19;4.53;;;3.20;;
12129;SDS011;6128;59.340;18.040;2024-03-07T04:57:48;4.00;;;3.07;;
12129;SDS011;6128;59.340;18.040;2024-03-07T05:00:15;5.80;;;3.33;;
12129;SDS011;6128;59.340;18.040;2024-03-07T05:02:44;5.17;;;3.17;;
12129;SDS011;6128;59.340;18.040;2024-03-07T05:05:13;3.73;;;3.23;;
12129;SDS011;6128;59.340;18.040;2024-03-07T05:07:40;3.83;;;2.93;;
12129;SDS011;6128;59.340;18.040;2024-03-07T05:10:07;26.27;;;4.93;;
12129;SDS011;6128;59.340;18.040;2024-03-07T05:12:34;8.70;;;3.20;;
12129;SDS011;6128;59.340;18.040;2024-03-07T05:15:04;5.33;;;3.60;;
12129;SDS011;6128;59.340;18.040;2024-03-07T05:17:34;4.93;;;2.90;;
12129;SDS011;6128;59.340;18.040;2024-03-07T05:20:04;5.93;;;3.37;;
12129;SDS011;6128;59.340;18.040;2024-03-07T05:22:35;5.27;;;3.37;;
12129;SDS011;6128;59.340;18.040;2024-03-07T05:25:05;6.80;;;3.33;;
12129;SDS011;6128;59.340;18.040;2024-03-07T05:27:33;5.27;;;2.80;;
12129;SDS011;6128;59.340;18.040;2024-03-07T05:30:01;5.07;;;3.00;;
12129;SDS011;6128;59.340;18.040;2024-03-07T05:32:34;3.43;;;2.93;;
12129;SDS011;6128;59.340;18.040;2024-03-07T05:35:01;6.97;;;3.03;;
12129;SDS011;6128;59.340;18.040;2024-03-07T05:37:28;7.40;;;2.70;;
12129;SDS011;6128;59.340;18.040;2024-03-07T05:39:56;4.40;;;3.10;;
12129;SDS011;6128;59.340;18.040;2024-03-07T05:42:24;6.00;;;2.80;;
12129;SDS011;6128;59.340;18.040;2024-03-07T05:44:51;4.97;;;2.93;;
12129;SDS011;6128;59.340;18.040;2024-03-07T05:47:21;7.93;;;3.27;;
12129;SDS011;6128;59.340;18.040;2024-03-07T05:49:48;3.80;;;2.63;;
12129;SDS011;6128;59.340;18.040;2024-03-07T05:52:15;6.47;;;3.03;;
12129;SDS011;6128;59.340;18.040;2024-03-07T05:54:43;4.07;;;3.03;;
12129;SDS011;6128;59.340;18.040;2024-03-07T05:57:10;5.63;;;3.10;;
12129;SDS011;6128;59.340;18.040;2024-03-07T05:59:37;5.27;;;2.70;;
12129;SDS011;6128;59.340;18.040;2024-03-07T06:02:04;7.03;;;3.00;;
12129;SDS011;6128;59.340;18.040;2024-03-07T06:04:33;5.30;;;3.00;;
12129;SDS011;6128;59.340;18.040;2024-03-07T06:07:00;2.63;;;2.40;;
12129;SDS011;6128;59.340;18.040;2024-03-07T06:09:29;3.10;;;2.70;;
12129;SDS011;6128;59.340;18.040;2024-03-07T06:11:56;3.90;;;3.00;;
12129;SDS011;6128;59.340;18.040;2024-03-07T06:14:23;4.20;;;3.13;;
12129;SDS011;6128;59.340;18.040;2024-03-07T06:16:50;3.67;;;2.73;;
12129;SDS011;6128;59.340;18.040;2024-03-07T06:19:18;2.97;;;2.53;;
12129;SDS011;6128;59.340;18.040;2024-03-07T06:21:47;4.93;;;2.97;;
12129;SDS011;6128;59.340;18.040;2024-03-07T06:24:14;3.60;;;2.70;;
12129;SDS011;6128;59.340;18.040;2024-03-07T06:26:43;4.77;;;2.50;;
12129;SDS011;6128;59.340;18.040;2024-03-07T06:29:24;5.10;;;2.70;;
12129;SDS011;6128;59.340;18.040;2024-03-07T06:31:54;4.60;;;2.87;;
12129;SDS011;6128;59.340;18.040;2024-03-07T06:34:22;4.37;;;2.70;;
12129;SDS011;6128;59.340;18.040;2024-03-07T06:36:51;11.40;;;2.77;;
12129;SDS011;6128;59.340;18.040;2024-03-07T06:39:20;18.10;;;3.17;;
12129;SDS011;6128;59.340;18.040;2024-03-07T06:41:48;3.27;;;2.40;;
12129;SDS011;6128;59.340;18.040;2024-03-07T06:44:15;2.80;;;2.33;;
12129;SDS011;6128;59.340;18.040;2024-03-07T06:46:48;4.90;;;2.50;;
12129;SDS011;6128;59.340;18.040;2024-03-07T06:49:15;4.07;;;2.17;;
12129;SDS011;6128;59.340;18.040;2024-03-07T06:51:42;3.37;;;2.63;;
12129;SDS011;6128;59.340;18.040;2024-03-07T06:54:12;3.50;;;2.70;;
12129;SDS011;6128;59.340;18.040;2024-03-07T06:56:39;4.23;;;2.60;;
12129;SDS011;6128;59.340;18.040;2024-03-07T06:59:08;2.80;;;2.10;;
12129;SDS011;6128;59.340;18.040;2024-03-07T07:01:35;5.37;;;2.27;;
12129;SDS011;6128;59.340;18.040;2024-03-07T07:04:04;3.63;;;2.37;;
12129;SDS011;6128;59.340;18.040;2024-03-07T07:06:33;6.67;;;2.50;;
12129;SDS011;6128;59.340;18.040;2024-03-07T07:09:01;3.63;;;2.33;;
12129;SDS011;6128;59.340;18.040;2024-03-07T07:11:33;7.43;;;2.47;;
12129;SDS011;6128;59.340;18.040;2024-03-07T07:14:00;6.83;;;2.40;;
12129;SDS011;6128;59.340;18.040;2024-03-07T07:16:28;4.27;;;2.30;;
12129;SDS011;6128;59.340;18.040;2024-03-07T07:18:56;10.30;;;3.10;;
12129;SDS011;6128;59.340;18.040;2024-03-07T07:21:23;4.43;;;1.80;;
12129;SDS011;6128;59.340;18.040;2024-03-07T07:23:51;2.80;;;2.37;;
12129;SDS011;6128;59.340;18.040;2024-03-07T07:26:18;4.53;;;2.60;;
12129;SDS011;6128;59.340;18.040;2024-03-07T07:28:46;7.80;;;2.47;;
12129;SDS011;6128;59.340;18.040;2024-03-07T07:31:13;2.77;;;2.00;;
12129;SDS011;6128;59.340;18.040;2024-03-07T07:33:41;4.87;;;1.97;;
12129;SDS011;6128;59.340;18.040;2024-03-07T07:36:08;4.77;;;1.77;;
12129;SDS011;6128;59.340;18.040;2024-03-07T07:38:36;2.17;;;1.87;;
12129;SDS011;6128;59.340;18.040;2024-03-07T07:41:03;4.77;;;1.83;;
12129;SDS011;6128;59.340;18.040;2024-03-07T07:43:31;3.70;;;2.13;;
12129;SDS011;6128;59.340;18.040;2024-03-07T07:46:00;4.03;;;2.00;;
12129;SDS011;6128;59.340;18.040;2024-03-07T07:48:27;6.47;;;2.20;;
12129;SDS011;6128;59.340;18.040;2024-03-07T07:50:54;3.17;;;2.10;;
12129;SDS011;6128;59.340;18.040;2024-03-07T07:53:26;2.30;;;2.03;;
12129;SDS011;6128;59.340;18.040;2024-03-07T07:55:54;7.33;;;2.67;;
12129;SDS011;6128;59.340;18.040;2024-03-07T07:58:22;4.37;;;2.23;;
12129;SDS011;6128;59.340;18.040;2024-03-07T08:00:49;2.27;;;2.10;;
12129;SDS011;6128;59.340;18.040;2024-03-07T08:03:18;8.57;;;2.23;;
12129;SDS011;6128;59.340;18.040;2024-03-07T08:05:47;4.17;;;2.17;;
12129;SDS011;6128;59.340;18.040;2024-03-07T08:08:15;6.50;;;2.30;;
12129;SDS011;6128;59.340;18.040;2024-03-07T08:10:43;3.43;;;2.37;;
12129;SDS011;6128;59.340;18.040;2024-03-07T08:13:12;8.50;;;2.50;;
12129;SDS011;6128;59.340;18.040;2024-03-07T08:15:40;11.83;;;2.83;;
12129;SDS011;6128;59.340;18.040;2024-03-07T08:18:09;2.80;;;1.60;;
12129;SDS011;6128;59.340;18.040;2024-03-07T08:20:38;3.20;;;1.90;;
12129;SDS011;6128;59.340;18.040;2024-03-07T08:23:20;3.03;;;1.90;;
12129;SDS011;6128;59.340;18.040;2024-03-07T08:25:50;3.13;;;1.73;;
12129;SDS011;6128;59.340;18.040;2024-03-07T08:28:17;4.13;;;2.13;;
12129;SDS011;6128;59.340;18.040;2024-03-07T08:30:44;6.03;;;2.30;;
12129;SDS011;6128;59.340;18.040;2024-03-07T08:33:11;5.73;;;2.53;;
12129;SDS011;6128;59.340;18.040;2024-03-07T08:35:40;7.93;;;2.30;;
12129;SDS011;6128;59.340;18.040;2024-03-07T08:38:07;8.40;;;3.40;;
12129;SDS011;6128;59.340;18.040;2024-03-07T08:40:35;9.73;;;2.93;;
12129;SDS011;6128;59.340;18.040;2024-03-07T08:43:02;11.03;;;2.93;;
12129;SDS011;6128;59.340;18.040;2024-03-07T08:45:32;6.23;;;1.80;;
12129;SDS011;6128;59.340;18.040;2024-03-07T08:47:59;3.03;;;1.90;;
12129;SDS011;6128;59.340;18.040;2024-03-07T08:50:26;4.37;;;1.90;;
12129;SDS011;6128;59.340;18.040;2024-03-07T08:52:56;6.47;;;2.27;;
12129;SDS011;6128;59.340;18.040;2024-03-07T08:55:24;6.40;;;2.43;;
12129;SDS011;6128;59.340;18.040;2024-03-07T08:57:52;8.23;;;2.70;;
12129;SDS011;6128;59.340;18.040;2024-03-07T09:00:19;3.83;;;2.00;;
12129;SDS011;6128;59.340;18.040;2024-03-07T09:02:51;5.83;;;1.93;;
12129;SDS011;6128;59.340;18.040;2024-03-07T09:05:19;6.90;;;2.43;;
12129;SDS011;6128;59.340;18.040;2024-03-07T09:07:47;1.77;;;1.53;;
12129;SDS011;6128;59.340;18.040;2024-03-07T09:10:16;5.43;;;1.73;;
12129;SDS011;6128;59.340;18.040;2024-03-07T09:12:44;12.33;;;3.10;;
12129;SDS011;6128;59.340;18.040;2024-03-07T09:15:13;2.90;;;1.97;;
12129;SDS011;6128;59.340;18.040;2024-03-07T09:17:42;4.77;;;2.53;;
12129;SDS011;6128;59.340;18.040;2024-03-07T09:20:10;4.57;;;1.50;;
12129;SDS011;6128;59.340;18.040;2024-03-07T09:22:40;5.47;;;1.90;;
12129;SDS011;6128;59.340;18.040;2024-03-07T09:25:08;4.57;;;2.30;;
12129;SDS011;6128;59.340;18.040;2024-03-07T09:27:37;11.87;;;2.80;;
12129;SDS011;6128;59.340;18.040;2024-03-07T09:30:05;6.90;;;2.37;;
12129;SDS011;6128;59.340;18.040;2024-03-07T09:32:37;2.97;;;2.13;;
12129;SDS011;6128;59.340;18.040;2024-03-07T09:35:05;10.70;;;2.60;;
12129;SDS011;6128;59.340;18.040;2024-03-07T09:37:36;12.77;;;3.30;;
12129;SDS011;6128;59.340;18.040;2024-03-07T09:40:06;4.77;;;1.97;;
12129;SDS011;6128;59.340;18.040;2024-03-07T09:42:38;6.83;;;2.00;;
12129;SDS011;6128;59.340;18.040;2024-03-07T09:45:12;11.40;;;3.50;;
12129;SDS011;6128;59.340;18.040;2024-03-07T09:47:41;5.97;;;1.93;;
12129;SDS011;6128;59.340;18.040;2024-03-07T09:50:09;10.53;;;2.17;;
12129;SDS011;6128;59.340;18.040;2024-03-07T09:52:38;5.07;;;1.73;;
12129;SDS011;6128;59.340;18.040;2024-03-07T09:55:08;4.60;;;1.77;;
12129;SDS011;6128;59.340;18.040;2024-03-07T09:57:35;9.30;;;2.63;;
12129;SDS011;6128;59.340;18.040;2024-03-07T10:00:05;13.23;;;3.03;;
12129;SDS011;6128;59.340;18.040;2024-03-07T10:02:47;4.40;;;1.73;;
12129;SDS011;6128;59.340;18.040;2024-03-07T10:05:17;4.80;;;1.90;;
12129;SDS011;6128;59.340;18.040;2024-03-07T10:07:46;12.40;;;2.23;;
12129;SDS011;6128;59.340;18.040;2024-03-07T10:10:13;4.53;;;1.97;;
12129;SDS011;6128;59.340;18.040;2024-03-07T10:12:42;4.50;;;1.50;;
12129;SDS011;6128;59.340;18.040;2024-03-07T10:15:10;7.37;;;2.07;;
12129;SDS011;6128;59.340;18.040;2024-03-07T10:17:38;8.93;;;2.20;;
12129;SDS011;6128;59.340;18.040;2024-03-07T10:20:06;13.27;;;3.13;;
12129;SDS011;6128;59.340;18.040;2024-03-07T10:22:38;4.03;;;1.60;;
12129;SDS011;6128;59.340;18.040;2024-03-07T10:25:06;6.43;;;1.47;;
12129;SDS011;6128;59.340;18.040;2024-03-07T10:27:35;11.43;;;2.17;;
12129;SDS011;6128;59.340;18.040;2024-03-07T10:30:06;4.17;;;2.00;;
12129;SDS011;6128;59.340;18.040;2024-03-07T10:32:33;5.60;;;1.63;;
12129;SDS011;6128;59.340;18.040;2024-03-07T10:35:01;6.67;;;2.10;;
12129;SDS011;6128;59.340;18.040;2024-03-07T10:37:33;11.73;;;3.60;;
12129;SDS011;6128;59.340;18.040;2024-03-07T10:40:01;4.03;;;1.50;;
12129;SDS011;6128;59.340;18.040;2024-03-07T10:42:41;5.07;;;1.50;;
12129;SDS011;6128;59.340;18.040;2024-03-07T10:45:15;13.53;;;3.27;;
12129;SDS011;6128;59.340;18.040;2024-03-07T10:47:46;2.90;;;1.50;;
12129;SDS011;6128;59.340;18.040;2024-03-07T10:50:24;7.30;;;1.97;;
12129;SDS011;6128;59.340;18.040;2024-03-07T10:53:03;6.90;;;1.73;;
12129;SDS011;6128;59.340;18.040;2024-03-07T10:55:34;8.50;;;2.57;;
12129;SDS011;6128;59.340;18.040;2024-03-07T10:58:14;3.90;;;1.43;;
12129;SDS011;6128;59.340;18.040;2024-03-07T11:00:52;7.13;;;2.03;;
12129;SDS011;6128;59.340;18.040;2024-03-07T11:03:23;11.23;;;1.90;;
12129;SDS011;6128;59.340;18.040;2024-03-07T11:05:50;12.23;;;2.47;;
12129;SDS011;6128;59.340;18.040;2024-03-07T11:08:17;13.23;;;2.63;;
12129;SDS011;6128;59.340;18.040;2024-03-07T11:10:46;8.37;;;2.43;;
12129;SDS011;6128;59.340;18.040;2024-03-07T11:13:13;7.77;;;2.80;;
12129;SDS011;6128;59.340;18.040;2024-03-07T11:15:43;6.10;;;2.67;;
12129;SDS011;6128;59.340;18.040;2024-03-07T11:18:14;6.23;;;2.67;;
12129;SDS011;6128;59.340;18.040;2024-03-07T11:20:42;3.57;;;2.17;;
12129;SDS011;6128;59.340;18.040;2024-03-07T11:23:27;14.30;;;3.13;;
12129;SDS011;6128;59.340;18.040;2024-03-07T11:26:00;5.23;;;2.70;;
12129;SDS011;6128;59.340;18.040;2024-03-07T11:28:32;8.77;;;2.47;;
12129;SDS011;6128;59.340;18.040;2024-03-07T11:31:09;11.53;;;2.87;;
12129;SDS011;6128;59.340;18.040;2024-03-07T11:33:40;6.33;;;2.33;;
12129;SDS011;6128;59.340;18.040;2024-03-07T11:36:09;7.27;;;2.40;;
12129;SDS011;6128;59.340;18.040;2024-03-07T11:38:37;4.90;;;2.07;;
12129;SDS011;6128;59.340;18.040;2024-03-07T11:41:04;11.23;;;2.30;;
12129;SDS011;6128;59.340;18.040;2024-03-07T11:43:37;5.30;;;2.10;;
12129;SDS011;6128;59.340;18.040;2024-03-07T11:46:05;3.77;;;1.60;;
12129;SDS011;6128;59.340;18.040;2024-03-07T11:48:40;5.83;;;2.33;;
12129;SDS011;6128;59.340;18.040;2024-03-07T11:51:08;14.57;;;2.63;;
12129;SDS011;6128;59.340;18.040;2024-03-07T11:53:38;11.53;;;2.37;;
12129;SDS011;6128;59.340;18.040;2024-03-07T11:56:06;13.00;;;2.23;;
12129;SDS011;6128;59.340;18.040;2024-03-07T11:58:37;13.03;;;2.37;;
12129;SDS011;6128;59.340;18.040;2024-03-07T12:01:06;9.23;;;2.50;;
12129;SDS011;6128;59.340;18.040;2024-03-07T12:03:40;10.37;;;1.70;;
12129;SDS011;6128;59.340;18.040;2024-03-07T12:06:08;8.57;;;1.63;;
12129;SDS011;6128;59.340;18.040;2024-03-07T12:08:38;6.67;;;1.60;;
12129;SDS011;6128;59.340;18.040;2024-03-07T12:11:06;13.17;;;2.70;;
12129;SDS011;6128;59.340;18.040;2024-03-07T12:13:37;4.10;;;1.33;;
12129;SDS011;6128;59.340;18.040;2024-03-07T12:16:06;5.80;;;1.20;;
12129;SDS011;6128;59.340;18.040;2024-03-07T12:18:34;5.43;;;1.53;;
12129;SDS011;6128;59.340;18.040;2024-03-07T12:21:04;13.47;;;1.20;;
12129;SDS011;6128;59.340;18.040;2024-03-07T12:23:33;17.97;;;3.13;;
12129;SDS011;6128;59.340;18.040;2024-03-07T12:26:01;19.93;;;3.30;;
12129;SDS011;6128;59.340;18.040;2024-03-07T12:28:28;2.47;;;1.63;;
12129;SDS011;6128;59.340;18.040;2024-03-07T12:30:58;5.93;;;1.43;;
12129;SDS011;6128;59.340;18.040;2024-03-07T12:33:27;2.93;;;1.00;;
12129;SDS011;6128;59.340;18.040;2024-03-07T12:35:57;5.20;;;1.83;;
12129;SDS011;6128;59.340;18.040;2024-03-07T12:38:32;9.83;;;2.00;;
12129;SDS011;6128;59.340;18.040;2024-03-07T12:41:02;8.57;;;1.50;;
12129;SDS011;6128;59.340;18.040;2024-03-07T12:43:32;8.70;;;1.77;;
12129;SDS011;6128;59.340;18.040;2024-03-07T12:45:59;24.10;;;4.40;;
12129;SDS011;6128;59.340;18.040;2024-03-07T12:48:26;8.90;;;1.33;;
12129;SDS011;6128;59.340;18.040;2024-03-07T12:50:53;9.60;;;2.23;;
12129;SDS011;6128;59.340;18.040;2024-03-07T12:53:20;2.40;;;1.17;;
12129;SDS011;6128;59.340;18.040;2024-03-07T12:55:50;8.00;;;1.63;;
12129;SDS011;6128;59.340;18.040;2024-03-07T12:58:17;11.67;;;1.60;;
12129;SDS011;6128;59.340;18.040;2024-03-07T13:00:45;6.37;;;1.10;;
12129;SDS011;6128;59.340;18.040;2024-03-07T13:03:12;2.47;;;1.00;;
12129;SDS011;6128;59.340;18.040;2024-03-07T13:05:40;11.47;;;2.60;;
12129;SDS011;6128;59.340;18.040;2024-03-07T13:08:08;7.37;;;1.40;;
12129;SDS011;6128;59.340;18.040;2024-03-07T13:10:37;3.63;;;1.17;;
12129;SDS011;6128;59.340;18.040;2024-03-07T13:13:07;5.17;;;0.70;;
12129;SDS011;6128;59.340;18.040;2024-03-07T13:15:35;8.70;;;1.40;;
12129;SDS011;6128;59.340;18.040;2024-03-07T13:18:04;4.43;;;1.20;;
12129;SDS011;6128;59.340;18.040;2024-03-07T13:20:34;5.83;;;1.37;;
12129;SDS011;6128;59.340;18.040;2024-03-07T13:23:01;3.73;;;0.90;;
12129;SDS011;6128;59.340;18.040;2024-03-07T13:25:29;6.10;;;0.90;;
12129;SDS011;6128;59.340;18.040;2024-03-07T13:28:03;3.23;;;1.10;;
12129;SDS011;6128;59.340;18.040;2024-03-07T13:30:38;5.70;;;1.53;;
12129;SDS011;6128;59.340;18.040;2024-03-07T13:33:06;17.70;;;3.00;;
12129;SDS011;6128;59.340;18.040;2024-03-07T13:35:37;8.00;;;1.17;;
12129;SDS011;6128;59.340;18.040;2024-03-07T13:38:05;5.07;;;1.40;;
12129;SDS011;6128;59.340;18.040;2024-03-07T13:40:33;5.07;;;0.97;;
12129;SDS011;6128;59.340;18.040;2024-03-07T13:43:03;5.17;;;1.27;;
12129;SDS011;6128;59.340;18.040;2024-03-07T13:45:33;6.40;;;1.40;;
12129;SDS011;6128;59.340;18.040;2024-03-07T13:48:05;5.20;;;1.60;;
12129;SDS011;6128;59.340;18.040;2024-03-07T13:50:33;13.03;;;2.20;;
12129;SDS011;6128;59.340;18.040;2024-03-07T13:53:03;7.40;;;2.30;;
12129;SDS011;6128;59.340;18.040;2024-03-07T13:55:40;14.40;;;2.20;;
12129;SDS011;6128;59.340;18.040;2024-03-07T13:58:23;12.97;;;1.60;;
12129;SDS011;6128;59.340;18.040;2024-03-07T14:01:04;9.07;;;2.03;;
12129;SDS011;6128;59.340;18.040;2024-03-07T14:04:02;16.30;;;3.00;;
12129;SDS011;6128;59.340;18.040;2024-03-07T14:07:09;5.83;;;1.80;;
12129;SDS011;6128;59.340;18.040;2024-03-07T14:10:07;14.07;;;2.00;;
12129;SDS011;6128;59.340;18.040;2024-03-07T14:12:56;5.77;;;1.13;;
12129;SDS011;6128;59.340;18.040;2024-03-07T14:15:43;6.23;;;1.67;;
12129;SDS011;6128;59.340;18.040;2024-03-07T14:21:58;12.03;;;1.70;;
12129;SDS011;6128;59.340;18.040;2024-03-07T14:27:49;17.73;;;2.30;;
12129;SDS011;6128;59.340;18.040;2024-03-07T14:30:27;7.03;;;1.77;;
12129;SDS011;6128;59.340;18.040;2024-03-07T14:33:08;12.37;;;1.83;;
12129;SDS011;6128;59.340;18.040;2024-03-07T14:38:30;12.20;;;1.87;;
12129;SDS011;6128;59.340;18.040;2024-03-07T14:41:10;8.03;;;1.93;;
12129;SDS011;6128;59.340;18.040;2024-03-07T14:43:40;5.13;;;1.00;;
12129;SDS011;6128;59.340;18.040;2024-03-07T14:46:08;6.93;;;1.43;;
12129;SDS011;6128;59.340;18.040;2024-03-07T14:48:37;4.70;;;0.90;;
12129;SDS011;6128;59.340;18.040;2024-03-07T14:51:07;12.60;;;2.17;;
12129;SDS011;6128;59.340;18.040;2024-03-07T14:53:38;10.37;;;1.80;;
12129;SDS011;6128;59.340;18.040;2024-03-07T14:56:06;9.63;;;1.83;;
12129;SDS011;6128;59.340;18.040;2024-03-07T14:58:35;7.87;;;1.07;;
12129;SDS011;6128;59.340;18.040;2024-03-07T15:01:03;8.23;;;1.97;;
12129;SDS011;6128;59.340;18.040;2024-03-07T15:03:31;4.97;;;1.47;;
12129;SDS011;6128;59.340;18.040;2024-03-07T15:05:59;4.63;;;1.07;;
12129;SDS011;6128;59.340;18.040;2024-03-07T15:08:28;10.33;;;1.30;;